Time;durP1;ratioP1;P1;durP2;ratioP2;P2;SDS_P1;SDS_P2;PMS_P1;PMS_P2;Temp;Humidity;BMP_temperature;BMP_pressure;BME280_temperature;BME280_humidity;BME280_pressure;Samples;Min_cycle;Max_cycle;Signal;HPM_P1;HPM_P2
2020/12/22 00:01:15;;;;;;;6.23;5.43;;;7.30;99.90;;;;;;5039735;28;20447;-78
2020/12/22 00:03:42;;;;;;;7.40;5.73;;;7.30;99.90;;;;;;5058227;28;20452;-78
2020/12/22 00:06:09;;;;;;;7.40;5.70;;;7.30;99.90;;;;;;5044222;28;20430;-78
2020/12/22 00:08:35;;;;;;;6.37;5.50;;;7.30;99.90;;;;;;5042380;28;20435;-79
2020/12/22 00:11:01;;;;;;;6.73;5.33;;;7.30;99.90;;;;;;5042052;28;20547;-78
2020/12/22 00:13:26;;;;;;;5.37;4.87;;;7.30;99.90;;;;;;5050431;28;20181;-78
2020/12/22 00:15:52;;;;;;;8.30;5.60;;;7.30;99.90;;;;;;5049245;28;20201;-78
2020/12/22 00:18:18;;;;;;;7.00;5.80;;;7.30;99.90;;;;;;5044924;28;20186;-79
2020/12/22 00:20:44;;;;;;;8.00;4.80;;;7.40;99.90;;;;;;5045434;28;20189;-77
2020/12/22 00:23:10;;;;;;;5.10;4.60;;;7.40;99.90;;;;;;5041836;28;20204;-78
2020/12/22 00:25:44;;;;;;;8.80;5.93;;;7.40;99.90;;;;;;5041425;28;20449;-78
2020/12/22 00:28:11;;;;;;;5.70;4.83;;;7.50;99.90;;;;;;5042629;28;20443;-78
2020/12/22 00:30:37;;;;;;;5.40;5.00;;;7.40;99.90;;;;;;5047610;28;20471;-78
2020/12/22 00:33:04;;;;;;;6.07;5.30;;;7.40;99.90;;;;;;5047865;28;20429;-78
2020/12/22 00:35:30;;;;;;;5.70;5.10;;;7.40;99.90;;;;;;5050724;28;20180;-78
2020/12/22 00:37:56;;;;;;;6.73;5.17;;;7.50;99.90;;;;;;5046470;28;21224;-78
2020/12/22 00:40:22;;;;;;;5.93;5.33;;;7.50;99.90;;;;;;5049013;28;20469;-78
2020/12/22 00:42:48;;;;;;;5.20;4.80;;;7.50;99.90;;;;;;5044042;28;20446;-78
2020/12/22 00:45:14;;;;;;;7.83;5.07;;;7.50;99.90;;;;;;5046857;28;20824;-78
2020/12/22 00:47:39;;;;;;;5.20;4.70;;;7.50;99.90;;;;;;5045050;28;20198;-78
2020/12/22 00:50:05;;;;;;;5.27;4.80;;;7.50;99.90;;;;;;5042933;28;20203;-78
2020/12/22 00:52:31;;;;;;;4.93;4.40;;;7.60;99.90;;;;;;5040863;28;20268;-78
2020/12/22 00:54:57;;;;;;;4.70;4.30;;;7.60;99.90;;;;;;5043463;28;20186;-78
2020/12/22 00:57:22;;;;;;;4.53;4.13;;;7.60;99.90;;;;;;5048082;28;20182;-78
2020/12/22 00:59:48;;;;;;;3.50;3.30;;;7.60;99.90;;;;;;5047103;28;20181;-78
2020/12/22 01:02:14;;;;;;;4.40;4.00;;;7.70;99.90;;;;;;5048099;28;20185;-78
2020/12/22 01:04:40;;;;;;;4.23;3.90;;;7.60;99.90;;;;;;5044916;28;20189;-78
2020/12/22 01:07:06;;;;;;;3.63;3.40;;;7.70;99.90;;;;;;5047330;28;20174;-78
2020/12/22 01:09:32;;;;;;;4.97;4.47;;;7.70;99.90;;;;;;5047508;28;20470;-77
2020/12/22 01:11:58;;;;;;;5.40;4.20;;;7.70;99.90;;;;;;5048188;28;20190;-77
2020/12/22 01:14:23;;;;;;;5.60;3.70;;;7.70;99.90;;;;;;5048005;28;20201;-78
2020/12/22 01:16:49;;;;;;;4.27;3.90;;;7.70;99.90;;;;;;5048208;28;20173;-78
2020/12/22 01:19:15;;;;;;;4.20;3.77;;;7.70;99.90;;;;;;5050965;28;20169;-77
2020/12/22 01:21:41;;;;;;;3.60;3.30;;;7.80;99.90;;;;;;5052457;28;20197;-78
2020/12/22 01:24:06;;;;;;;3.57;3.30;;;7.80;99.90;;;;;;5049056;28;20177;-78
2020/12/22 01:26:33;;;;;;;4.40;3.83;;;7.80;99.90;;;;;;5052433;28;20626;-78
2020/12/22 01:28:59;;;;;;;3.50;3.20;;;7.80;99.90;;;;;;5048724;28;20174;-78
2020/12/22 01:31:29;;;;;;;4.50;4.10;;;7.80;99.90;;;;;;5052928;28;20476;-78
2020/12/22 01:33:56;;;;;;;3.63;3.17;;;7.90;99.90;;;;;;5049889;28;20184;-77
2020/12/22 01:36:23;;;;;;;4.13;3.73;;;7.90;99.90;;;;;;5049018;28;20420;-78
2020/12/22 01:38:49;;;;;;;3.33;3.13;;;7.90;99.90;;;;;;5052948;28;20432;-78
2020/12/22 01:41:16;;;;;;;3.83;3.33;;;8.00;99.90;;;;;;5050900;28;20488;-78
2020/12/22 01:43:42;;;;;;;4.40;4.00;;;8.00;99.90;;;;;;5054920;28;20439;-78
2020/12/22 01:46:08;;;;;;;5.10;4.23;;;8.00;99.90;;;;;;5051532;28;20452;-78
2020/12/22 01:48:36;;;;;;;4.67;4.27;;;8.00;99.90;;;;;;5051041;28;20444;-77
2020/12/22 01:51:03;;;;;;;3.67;3.37;;;8.00;99.90;;;;;;5049809;28;20464;-77
2020/12/22 01:53:29;;;;;;;4.47;3.83;;;8.10;99.90;;;;;;5052152;28;20457;-78
2020/12/22 01:55:55;;;;;;;4.03;3.70;;;8.10;99.90;;;;;;5053744;28;20447;-77
2020/12/22 01:58:20;;;;;;;3.47;3.17;;;8.10;99.90;;;;;;5048053;28;20170;-78
2020/12/22 02:00:46;;;;;;;4.43;3.70;;;8.10;99.90;;;;;;5054562;28;20181;-77
2020/12/22 02:03:14;;;;;;;4.20;3.30;;;8.10;99.90;;;;;;5049544;28;20170;-78
2020/12/22 02:05:40;;;;;;;7.40;3.67;;;8.10;99.90;;;;;;5050689;28;20463;-78
2020/12/22 02:08:06;;;;;;;2.63;2.43;;;8.20;99.90;;;;;;5047549;28;20474;-78
2020/12/22 02:10:32;;;;;;;3.33;2.77;;;8.20;99.90;;;;;;5052448;28;20448;-78
2020/12/22 02:12:59;;;;;;;3.40;3.00;;;8.20;99.90;;;;;;5052085;28;20511;-77
2020/12/22 02:15:26;;;;;;;3.20;2.90;;;8.20;99.90;;;;;;5053758;28;20421;-78
2020/12/22 02:17:52;;;;;;;3.00;2.80;;;8.20;99.90;;;;;;5055530;28;20439;-78
2020/12/22 02:20:17;;;;;;;2.30;2.20;;;8.30;99.90;;;;;;5056002;28;20432;-78
2020/12/22 02:22:43;;;;;;;2.10;2.00;;;8.30;99.90;;;;;;5053901;28;20170;-78
2020/12/22 02:25:15;;;;;;;2.43;2.33;;;8.30;99.90;;;;;;5053750;28;20183;-77
2020/12/22 02:27:40;;;;;;;2.10;1.93;;;8.50;99.90;;;;;;5056238;28;20186;-77
2020/12/22 02:30:07;;;;;;;1.77;1.67;;;8.50;99.90;;;;;;5057419;28;20589;-78
2020/12/22 02:32:33;;;;;;;2.17;1.97;;;8.40;99.90;;;;;;5052034;28;20178;-78
2020/12/22 02:34:59;;;;;;;1.27;1.17;;;8.50;99.90;;;;;;5051107;28;20432;-78
2020/12/22 02:37:25;;;;;;;1.40;1.40;;;8.40;99.90;;;;;;5054229;28;20174;-78
2020/12/22 02:39:50;;;;;;;1.80;1.70;;;8.40;99.90;;;;;;5051829;28;20270;-78
2020/12/22 02:42:16;;;;;;;2.27;2.17;;;8.50;99.90;;;;;;5054094;28;20177;-78
2020/12/22 02:44:42;;;;;;;1.93;1.83;;;8.50;99.90;;;;;;5055876;28;20188;-78
2020/12/22 02:47:12;;;;;;;1.77;1.67;;;8.60;99.90;;;;;;5051553;28;20216;-78
2020/12/22 02:49:39;;;;;;;2.20;2.10;;;8.60;99.90;;;;;;5053040;28;20186;-78
2020/12/22 02:52:05;;;;;;;2.20;2.10;;;8.60;99.90;;;;;;5049351;28;20433;-78
2020/12/22 02:54:32;;;;;;;1.70;1.60;;;8.60;99.90;;;;;;5048258;28;20437;-77
2020/12/22 02:56:58;;;;;;;2.00;1.90;;;8.60;99.90;;;;;;5045885;28;20429;-78
2020/12/22 02:59:23;;;;;;;1.90;1.80;;;8.60;99.90;;;;;;5048767;28;20433;-78
2020/12/22 03:01:49;;;;;;;1.90;1.80;;;8.70;99.90;;;;;;5050040;28;20175;-78
2020/12/22 03:04:15;;;;;;;2.23;2.13;;;8.70;99.90;;;;;;5043072;28;20178;-77
2020/12/22 03:06:41;;;;;;;2.20;2.10;;;8.70;99.90;;;;;;5054433;28;20186;-78
2020/12/22 03:09:07;;;;;;;2.40;2.20;;;8.70;99.90;;;;;;5050239;28;20423;-77
2020/12/22 03:11:34;;;;;;;1.70;1.60;;;8.70;99.90;;;;;;5049027;28;20213;-78
2020/12/22 03:14:00;;;;;;;1.40;1.40;;;8.80;99.90;;;;;;5052596;28;20440;-78
2020/12/22 03:16:25;;;;;;;1.80;1.70;;;8.80;99.90;;;;;;5054446;28;20448;-78
2020/12/22 03:18:51;;;;;;;1.50;1.40;;;8.90;99.90;;;;;;5052141;28;20176;-77
2020/12/22 03:21:17;;;;;;;1.43;1.40;;;8.90;99.90;;;;;;5052013;28;20201;-77
2020/12/22 03:23:45;;;;;;;1.33;1.23;;;8.90;99.90;;;;;;5052231;28;20174;-78
2020/12/22 03:26:11;;;;;;;1.57;1.47;;;8.90;99.90;;;;;;5052826;28;20197;-78
2020/12/22 03:28:37;;;;;;;1.30;1.20;;;8.90;99.90;;;;;;5052886;28;20416;-78
2020/12/22 03:31:03;;;;;;;1.27;1.27;;;8.90;99.90;;;;;;5054543;28;20230;-77
2020/12/22 03:33:29;;;;;;;0.97;0.97;;;8.90;99.90;;;;;;5054363;28;20448;-78
2020/12/22 03:35:55;;;;;;;1.00;1.00;;;8.90;99.90;;;;;;5051733;28;20293;-77
2020/12/22 03:38:21;;;;;;;1.00;1.00;;;8.90;99.90;;;;;;5049728;28;20186;-78
2020/12/22 03:40:47;;;;;;;1.43;1.00;;;8.90;99.90;;;;;;5054895;28;20177;-78
2020/12/22 03:43:13;;;;;;;1.13;1.13;;;9.00;99.90;;;;;;5050536;28;20587;-78
2020/12/22 03:45:41;;;;;;;0.60;0.60;;;9.00;99.90;;;;;;5050571;28;20425;-78
2020/12/22 03:48:07;;;;;;;0.70;0.70;;;9.00;99.90;;;;;;5054380;28;20181;-78
2020/12/22 03:50:32;;;;;;;0.80;0.80;;;9.10;99.90;;;;;;5054703;28;20456;-78
2020/12/22 03:52:59;;;;;;;0.90;0.90;;;9.10;99.90;;;;;;5053287;28;20177;-78
2020/12/22 03:55:25;;;;;;;0.80;0.80;;;9.10;99.90;;;;;;5050686;28;20216;-78
2020/12/22 03:57:51;;;;;;;0.97;0.97;;;9.10;99.90;;;;;;5055825;28;20418;-78
2020/12/22 04:00:17;;;;;;;0.70;0.70;;;9.10;99.90;;;;;;5057329;28;20162;-78
2020/12/22 04:02:43;;;;;;;0.77;0.77;;;9.20;99.90;;;;;;5049023;28;20191;-78
2020/12/22 04:05:09;;;;;;;0.90;0.90;;;9.30;99.90;;;;;;5053790;28;20445;-78
2020/12/22 04:07:34;;;;;;;0.67;0.67;;;9.20;99.90;;;;;;5055846;28;20162;-77
2020/12/22 04:10:01;;;;;;;0.87;0.87;;;9.20;99.90;;;;;;5051428;28;20463;-78
2020/12/22 04:12:27;;;;;;;0.80;0.80;;;9.30;99.90;;;;;;5051063;28;20245;-78
2020/12/22 04:14:53;;;;;;;0.80;0.80;;;9.30;99.90;;;;;;5030776;28;20831;-76
2020/12/22 04:17:19;;;;;;;0.77;0.77;;;9.40;99.90;;;;;;5024459;28;20202;-76
2020/12/22 04:19:45;;;;;;;0.70;0.70;;;9.40;99.90;;;;;;5025108;28;20231;-76
2020/12/22 04:22:10;;;;;;;0.70;0.70;;;9.40;99.90;;;;;;5026479;28;20926;-76
2020/12/22 04:24:36;;;;;;;0.70;0.70;;;9.40;99.90;;;;;;5023152;28;20506;-76
2020/12/22 04:27:02;;;;;;;0.70;0.70;;;9.50;99.90;;;;;;5033735;28;20186;-77
2020/12/22 04:29:27;;;;;;;0.80;0.80;;;9.50;99.90;;;;;;5030189;28;20181;-76
2020/12/22 04:31:53;;;;;;;0.63;0.63;;;9.60;99.90;;;;;;5028635;28;20201;-76
2020/12/22 04:34:19;;;;;;;0.70;0.70;;;9.60;99.90;;;;;;5028010;28;20253;-76
2020/12/22 04:36:45;;;;;;;1.00;1.00;;;9.70;99.90;;;;;;5028348;28;20232;-75
2020/12/22 04:39:10;;;;;;;0.90;0.90;;;9.80;99.90;;;;;;5024676;28;20493;-76
2020/12/22 04:41:38;;;;;;;1.00;1.00;;;9.80;99.90;;;;;;5028331;28;20186;-76
2020/12/22 04:44:04;;;;;;;1.30;1.20;;;9.90;99.90;;;;;;5025077;28;20177;-76
2020/12/22 04:46:33;;;;;;;0.90;0.90;;;10.00;99.90;;;;;;5026383;28;20444;-76
2020/12/22 04:48:59;;;;;;;1.73;1.30;;;10.00;99.90;;;;;;5025779;28;20228;-76
2020/12/22 04:51:25;;;;;;;1.50;1.27;;;10.10;99.90;;;;;;5028080;28;20846;-76
2020/12/22 04:53:52;;;;;;;1.27;1.20;;;10.20;99.90;;;;;;5027986;28;20433;-76
2020/12/22 04:56:20;;;;;;;1.13;1.13;;;10.20;99.90;;;;;;5027506;28;20420;-76
2020/12/22 04:58:46;;;;;;;1.40;1.30;;;10.30;99.90;;;;;;5027772;28;20918;-76
2020/12/22 05:01:15;;;;;;;2.17;2.07;;;10.40;99.90;;;;;;5031246;28;20432;-76
2020/12/22 05:03:40;;;;;;;1.80;1.70;;;10.40;99.90;;;;;;5030171;28;20921;-76
2020/12/22 05:06:06;;;;;;;1.90;1.80;;;10.30;99.90;;;;;;5029751;28;20443;-76
2020/12/22 05:08:32;;;;;;;2.70;2.10;;;10.40;99.90;;;;;;5026317;28;20181;-76
2020/12/22 05:10:57;;;;;;;2.63;2.47;;;10.50;99.90;;;;;;5028989;28;20197;-76
2020/12/22 05:13:23;;;;;;;2.60;2.40;;;10.50;99.90;;;;;;5027951;28;20190;-76
2020/12/22 05:15:51;;;;;;;2.90;2.70;;;10.60;99.90;;;;;;5020909;28;20250;-76
2020/12/22 05:18:22;;;;;;;2.57;2.37;;;10.70;99.90;;;;;;5044979;28;20555;-76
2020/12/22 05:20:49;;;;;;;3.37;3.07;;;10.70;99.90;;;;;;5028610;28;20424;-76
2020/12/22 05:23:19;;;;;;;2.97;2.77;;;10.70;99.90;;;;;;5027959;28;20429;-76
2020/12/22 05:25:50;;;;;;;3.37;3.17;;;10.70;99.90;;;;;;5031160;28;20484;-76
2020/12/22 05:28:18;;;;;;;4.03;3.40;;;10.80;99.90;;;;;;5026414;28;20968;-76
2020/12/22 05:30:45;;;;;;;3.13;2.80;;;10.90;99.90;;;;;;5031127;28;20547;-76
2020/12/22 05:33:11;;;;;;;4.57;4.13;;;10.90;99.90;;;;;;5029663;28;20433;-76
2020/12/22 05:35:42;;;;;;;3.90;3.37;;;10.80;99.90;;;;;;5027753;28;20924;-76
2020/12/22 05:38:07;;;;;;;3.93;3.63;;;10.90;99.90;;;;;;5025853;28;20842;-76
2020/12/22 05:40:34;;;;;;;5.43;4.00;;;10.90;99.90;;;;;;5028510;28;20478;-76
2020/12/22 05:43:01;;;;;;;4.40;3.87;;;10.80;99.90;;;;;;5029550;28;20439;-76
2020/12/22 05:45:31;;;;;;;3.90;3.60;;;10.90;99.90;;;;;;5031036;28;20456;-77
2020/12/22 05:47:57;;;;;;;3.87;3.47;;;10.90;99.90;;;;;;5030954;28;20437;-76
2020/12/22 05:50:24;;;;;;;4.27;3.83;;;10.90;99.90;;;;;;5022968;28;20552;-76
2020/12/22 05:52:53;;;;;;;3.67;3.37;;;11.00;99.90;;;;;;5029226;28;20189;-76
2020/12/22 05:55:32;;;;;;;5.90;4.57;;;11.10;99.90;;;;;;5032788;28;20845;-77
2020/12/22 05:58:09;;;;;;;4.60;3.87;;;11.10;99.90;;;;;;5035790;28;20568;-76
2020/12/22 06:00:36;;;;;;;6.10;4.43;;;11.10;99.90;;;;;;5033714;28;20446;-77
2020/12/22 06:03:06;;;;;;;5.57;4.77;;;11.20;99.90;;;;;;5038123;28;20496;-77
2020/12/22 06:05:36;;;;;;;5.07;4.43;;;11.10;99.90;;;;;;5037090;28;20804;-77
2020/12/22 06:08:06;;;;;;;6.40;5.10;;;11.10;99.90;;;;;;5054001;28;20432;-76
2020/12/22 06:10:33;;;;;;;8.40;5.30;;;11.20;99.90;;;;;;5039304;28;20607;-77
2020/12/22 06:12:59;;;;;;;6.33;4.93;;;11.20;99.90;;;;;;5040138;28;20429;-77
2020/12/22 06:15:26;;;;;;;7.70;5.10;;;11.30;99.90;;;;;;5044557;28;20474;-76
2020/12/22 06:17:52;;;;;;;5.93;5.20;;;11.30;99.90;;;;;;5040007;28;20421;-77
2020/12/22 06:20:21;;;;;;;6.63;5.23;;;11.30;99.90;;;;;;5044404;28;20455;-77
2020/12/22 06:22:51;;;;;;;7.07;4.80;;;11.30;99.90;;;;;;5043529;28;20444;-77
2020/12/22 06:25:21;;;;;;;4.20;3.70;;;11.30;99.90;;;;;;5042950;28;20425;-76
2020/12/22 06:27:48;;;;;;;7.10;5.23;;;11.30;99.90;;;;;;5043255;28;20433;-77
2020/12/22 06:30:18;;;;;;;7.00;4.83;;;11.30;99.90;;;;;;5043837;28;20460;-77
2020/12/22 06:32:44;;;;;;;5.17;4.60;;;11.40;99.90;;;;;;5038578;28;20424;-76
2020/12/22 06:35:28;;;;;;;5.90;4.43;;;11.50;99.90;;;;;;5031869;28;20432;-77
2020/12/22 06:37:55;;;;;;;7.80;5.67;;;11.50;99.90;;;;;;5027611;28;20454;-77
2020/12/22 06:40:57;;;;;;;5.10;4.50;;;11.50;99.90;;;;;;5030207;28;20782;-76
2020/12/22 06:43:47;;;;;;;5.30;4.80;;;11.40;99.90;;;;;;5033273;28;20432;-77
2020/12/22 06:46:34;;;;;;;4.73;4.23;;;11.40;99.90;;;;;;5035961;28;20466;-77
2020/12/22 06:49:02;;;;;;;5.50;4.87;;;11.60;99.90;;;;;;5039223;28;20437;-77
2020/12/22 06:51:31;;;;;;;5.90;4.40;;;11.60;99.90;;;;;;5036966;28;20774;-76
2020/12/22 06:54:01;;;;;;;5.20;4.33;;;11.70;99.90;;;;;;5032275;28;20932;-76
2020/12/22 06:56:54;;;;;;;6.63;4.80;;;11.70;99.90;;;;;;5029332;28;20428;-77
2020/12/22 06:59:39;;;;;;;5.70;4.60;;;11.70;99.90;;;;;;5032096;28;20444;-77
2020/12/22 07:02:05;;;;;;;5.10;4.50;;;11.70;99.90;;;;;;5031604;28;20778;-77
2020/12/22 07:04:40;;;;;;;6.00;5.17;;;11.70;99.90;;;;;;5022532;28;20428;-77
2020/12/22 07:07:05;;;;;;;6.53;5.37;;;11.70;99.90;;;;;;5029837;28;20834;-77
2020/12/22 07:09:35;;;;;;;6.17;5.20;;;11.60;99.90;;;;;;5029869;28;20504;-77
2020/12/22 07:12:11;;;;;;;6.87;5.20;;;11.70;99.90;;;;;;5032061;28;20194;-77
2020/12/22 07:14:41;;;;;;;6.37;5.23;;;11.70;99.90;;;;;;5036891;28;20421;-77
2020/12/22 07:17:07;;;;;;;7.03;6.30;;;11.70;99.90;;;;;;5028906;28;20445;-76
2020/12/22 07:19:36;;;;;;;6.37;5.40;;;11.70;99.90;;;;;;5021485;28;20443;-76
2020/12/22 07:22:05;;;;;;;7.70;6.10;;;11.60;99.90;;;;;;5028659;28;20193;-76
2020/12/22 07:24:34;;;;;;;6.83;5.00;;;11.70;99.90;;;;;;5015425;28;20445;-76
2020/12/22 07:27:00;;;;;;;6.20;5.60;;;11.60;99.90;;;;;;5025019;28;20437;-75
2020/12/22 07:29:26;;;;;;;6.87;5.63;;;11.70;99.90;;;;;;5023963;28;21093;-75
2020/12/22 07:31:52;;;;;;;7.67;6.60;;;11.70;99.90;;;;;;5027629;28;20476;-80
2020/12/22 07:34:19;;;;;;;5.50;5.00;;;11.80;99.90;;;;;;5040161;28;20461;-79
2020/12/22 07:36:46;;;;;;;6.27;5.37;;;11.80;99.90;;;;;;5022658;28;20183;-78
2020/12/22 07:39:18;;;;;;;6.00;5.33;;;11.80;99.90;;;;;;5032128;28;20412;-77
2020/12/22 07:41:46;;;;;;;5.90;4.87;;;11.70;99.90;;;;;;5017386;28;20929;-79
2020/12/22 07:44:14;;;;;;;6.23;4.20;;;11.70;99.90;;;;;;5024847;28;20913;-79
2020/12/22 07:46:42;;;;;;;4.23;3.83;;;11.70;99.90;;;;;;5020043;28;20425;-79
2020/12/22 07:49:10;;;;;;;3.90;3.60;;;11.80;99.90;;;;;;5024255;28;20918;-80
2020/12/22 07:51:41;;;;;;;3.67;3.37;;;11.80;99.90;;;;;;5045269;28;20452;-80
2020/12/22 07:54:07;;;;;;;3.87;3.57;;;11.80;99.90;;;;;;5046186;23;20495;-80
2020/12/22 07:56:37;;;;;;;3.60;3.30;;;11.80;99.90;;;;;;5032494;28;20487;-81
2020/12/22 07:59:06;;;;;;;4.07;3.77;;;11.80;99.90;;;;;;5027906;28;20504;-83
2020/12/22 08:01:39;;;;;;;3.23;2.97;;;11.80;99.90;;;;;;5033183;28;20620;-82
2020/12/22 08:04:22;;;;;;;2.77;2.57;;;11.80;99.90;;;;;;5026991;28;20428;-84
2020/12/22 08:07:03;;;;;;;3.17;2.97;;;11.80;99.90;;;;;;5036520;28;20799;-80
2020/12/22 08:09:32;;;;;;;2.63;2.50;;;11.80;99.90;;;;;;5032348;28;20494;-81
2020/12/22 08:12:01;;;;;;;2.73;2.53;;;11.80;99.90;;;;;;5025434;28;20853;-80
2020/12/22 08:14:28;;;;;;;2.70;2.50;;;11.90;99.90;;;;;;5025949;28;20475;-81
2020/12/22 08:16:57;;;;;;;3.70;3.40;;;11.90;99.90;;;;;;5029243;28;20429;-80
2020/12/22 08:19:24;;;;;;;2.57;2.37;;;11.90;99.90;;;;;;5032869;28;20897;-81
2020/12/22 08:21:54;;;;;;;3.43;3.13;;;11.90;99.90;;;;;;5031634;28;20898;-81
2020/12/22 08:24:20;;;;;;;3.10;2.90;;;11.90;99.90;;;;;;5027967;28;20841;-80
2020/12/22 08:26:50;;;;;;;2.53;2.43;;;11.90;99.90;;;;;;5029611;28;20434;-81
2020/12/22 08:29:17;;;;;;;3.00;2.80;;;11.90;99.90;;;;;;5028252;28;20782;-80
2020/12/22 08:31:45;;;;;;;3.20;2.90;;;11.90;99.90;;;;;;5028934;28;20551;-81
2020/12/22 08:34:14;;;;;;;3.60;3.30;;;11.90;99.90;;;;;;5022540;28;20440;-83
2020/12/22 08:36:41;;;;;;;3.47;3.27;;;11.90;99.90;;;;;;5030793;28;20441;-80
2020/12/22 08:39:11;;;;;;;3.00;2.80;;;12.00;99.90;;;;;;5030809;28;20460;-81
2020/12/22 08:41:37;;;;;;;2.73;2.53;;;11.90;99.90;;;;;;5024656;28;20472;-81
2020/12/22 08:44:05;;;;;;;2.60;2.40;;;12.00;99.90;;;;;;5030211;28;20464;-82
2020/12/22 08:46:31;;;;;;;2.53;2.33;;;12.00;99.90;;;;;;5027242;28;20613;-83
2020/12/22 08:49:06;;;;;;;4.30;3.03;;;11.90;99.90;;;;;;5028256;28;20514;-83
2020/12/22 08:51:32;;;;;;;3.53;3.23;;;12.00;99.90;;;;;;5027365;28;20477;-82
2020/12/22 08:54:01;;;;;;;4.17;3.73;;;12.00;99.90;;;;;;5028277;28;23337;-81
2020/12/22 08:56:27;;;;;;;4.30;3.93;;;12.00;99.90;;;;;;5029337;28;20428;-82
2020/12/22 08:58:57;;;;;;;4.70;4.30;;;12.00;99.90;;;;;;5027298;28;20763;-81
2020/12/22 09:01:26;;;;;;;4.53;4.17;;;12.00;99.90;;;;;;5026699;28;20177;-82
2020/12/22 09:03:54;;;;;;;5.70;3.37;;;12.00;99.90;;;;;;5029330;28;20515;-82
2020/12/22 09:06:38;;;;;;;4.10;3.67;;;12.00;99.90;;;;;;5028147;28;20882;-82
2020/12/22 09:09:07;;;;;;;4.80;4.10;;;11.90;99.90;;;;;;5026206;28;20856;-83
2020/12/22 09:11:33;;;;;;;4.40;3.83;;;12.00;99.90;;;;;;5044007;28;20492;-82
2020/12/22 09:14:19;;;;;;;3.57;3.33;;;12.00;99.90;;;;;;5028215;28;21181;-81
2020/12/22 09:16:51;;;;;;;5.30;4.33;;;12.10;99.90;;;;;;5026266;28;20832;-82
2020/12/22 09:19:22;;;;;;;4.00;3.70;;;12.10;99.90;;;;;;5022911;28;20428;-81
2020/12/22 09:21:57;;;;;;;6.37;3.87;;;12.10;99.90;;;;;;5030332;28;20539;-80
2020/12/22 09:24:23;;;;;;;3.77;3.43;;;12.20;99.90;;;;;;5022883;28;20810;-81
2020/12/22 09:26:56;;;;;;;3.67;2.87;;;12.20;99.90;;;;;;5029832;28;20421;-81
2020/12/22 09:29:23;;;;;;;3.37;3.07;;;12.10;99.90;;;;;;5029748;28;20506;-80
2020/12/22 09:31:49;;;;;;;3.33;3.03;;;12.20;99.90;;;;;;5030881;28;20447;-80
2020/12/22 09:34:15;;;;;;;3.17;2.97;;;12.20;99.90;;;;;;5021847;28;20424;-80
2020/12/22 09:36:41;;;;;;;3.00;2.80;;;12.10;99.90;;;;;;5028091;28;20474;-81
2020/12/22 09:39:07;;;;;;;5.73;3.10;;;12.20;99.90;;;;;;5028467;28;20918;-82
2020/12/22 09:41:41;;;;;;;3.10;2.90;;;12.10;99.90;;;;;;5028940;28;20436;-80
2020/12/22 09:44:06;;;;;;;2.83;2.63;;;12.20;99.90;;;;;;5029647;28;20173;-81
2020/12/22 09:46:32;;;;;;;2.20;2.10;;;12.20;99.90;;;;;;5032000;28;20507;-80
2020/12/22 09:48:58;;;;;;;3.30;3.10;;;12.20;99.90;;;;;;5028277;28;20595;-80
2020/12/22 09:51:24;;;;;;;3.00;2.80;;;12.10;99.90;;;;;;5029851;28;20190;-80
2020/12/22 09:53:50;;;;;;;3.17;2.97;;;12.10;99.90;;;;;;5030340;28;20532;-79
2020/12/22 09:56:16;;;;;;;3.07;2.83;;;12.00;99.90;;;;;;5025176;28;20493;-80
2020/12/22 09:58:42;;;;;;;3.07;2.87;;;12.10;99.90;;;;;;5027427;28;20436;-80
2020/12/22 10:01:07;;;;;;;2.80;2.70;;;12.10;99.90;;;;;;5027677;28;20443;-80
2020/12/22 10:03:33;;;;;;;3.43;3.13;;;12.10;99.90;;;;;;5026653;28;20277;-80
2020/12/22 10:05:59;;;;;;;2.67;2.57;;;12.10;99.90;;;;;;5028197;28;20253;-80
2020/12/22 10:08:24;;;;;;;3.30;2.73;;;12.20;99.90;;;;;;5020088;28;20248;-79
2020/12/22 10:10:50;;;;;;;2.93;2.73;;;12.20;99.90;;;;;;5030760;28;20198;-78
2020/12/22 10:13:16;;;;;;;3.10;2.90;;;12.20;99.90;;;;;;5028133;28;20285;-78
2020/12/22 10:15:42;;;;;;;3.43;3.13;;;12.30;99.90;;;;;;5027952;28;20186;-78
2020/12/22 10:18:09;;;;;;;6.80;2.60;;;12.20;99.90;;;;;;5027258;28;20170;-79
2020/12/22 10:20:36;;;;;;;3.50;2.70;;;12.20;99.90;;;;;;5026694;28;20236;-81
2020/12/22 10:23:03;;;;;;;3.20;2.90;;;12.10;99.90;;;;;;5029283;28;20436;-80
2020/12/22 10:25:29;;;;;;;3.83;3.53;;;12.20;99.90;;;;;;5028773;28;20428;-81
2020/12/22 10:27:54;;;;;;;3.23;3.03;;;12.20;99.90;;;;;;5029796;28;23308;-83
2020/12/22 10:30:20;;;;;;;2.53;2.43;;;12.20;99.90;;;;;;5028966;28;20194;-81
2020/12/22 10:32:46;;;;;;;3.20;3.00;;;12.20;99.90;;;;;;5030954;28;20635;-81
2020/12/22 10:35:12;;;;;;;4.40;2.63;;;12.20;99.90;;;;;;5030263;28;20174;-81
2020/12/22 10:37:38;;;;;;;2.77;2.17;;;12.10;99.90;;;;;;5028580;28;20274;-79
2020/12/22 10:40:04;;;;;;;3.00;2.80;;;12.10;99.90;;;;;;5033177;28;20964;-79
2020/12/22 10:42:30;;;;;;;3.53;2.87;;;12.10;99.90;;;;;;5029459;28;20174;-80
2020/12/22 10:44:55;;;;;;;2.40;2.20;;;12.10;99.90;;;;;;5024643;28;20509;-79
2020/12/22 10:47:21;;;;;;;2.40;2.30;;;12.20;99.90;;;;;;5027241;28;20612;-79
2020/12/22 10:49:48;;;;;;;3.43;3.13;;;12.30;99.90;;;;;;5030776;28;20182;-79
2020/12/22 10:52:14;;;;;;;2.70;2.50;;;12.20;99.90;;;;;;5030927;28;20210;-79
2020/12/22 10:54:40;;;;;;;3.30;3.20;;;12.30;99.90;;;;;;5024052;28;20447;-79
2020/12/22 10:57:06;;;;;;;2.83;2.60;;;12.20;99.90;;;;;;5030258;28;20811;-79
2020/12/22 10:59:33;;;;;;;3.10;2.90;;;12.20;99.90;;;;;;5032699;28;20186;-78
2020/12/22 11:01:59;;;;;;;3.33;3.13;;;12.20;99.90;;;;;;5023578;28;20446;-78
2020/12/22 11:04:25;;;;;;;3.57;3.27;;;12.30;99.90;;;;;;5033690;28;20890;-78
2020/12/22 11:09:22;;;;;;;2.70;2.60;;;12.30;99.90;;;;;;5033328;28;20186;-79
2020/12/22 11:11:48;;;;;;;2.67;2.57;;;12.30;99.90;;;;;;5033030;28;20463;-80
2020/12/22 11:14:14;;;;;;;1.97;1.87;;;12.30;99.90;;;;;;5029051;28;20184;-80
2020/12/22 11:16:40;;;;;;;1.90;1.80;;;12.20;99.90;;;;;;5030560;28;20615;-80
2020/12/22 11:19:06;;;;;;;2.23;1.70;;;12.20;99.90;;;;;;5030069;28;20431;-81
2020/12/22 11:21:32;;;;;;;3.80;2.10;;;12.20;99.90;;;;;;5030815;28;20308;-81
2020/12/22 11:23:58;;;;;;;5.53;1.23;;;12.30;99.90;;;;;;5028779;28;20440;-81
2020/12/22 11:26:27;;;;;;;1.03;1.03;;;12.20;99.90;;;;;;5029417;28;20189;-84
2020/12/22 11:28:53;;;;;;;2.20;1.20;;;12.20;99.90;;;;;;5030245;28;20882;-81
2020/12/22 11:31:20;;;;;;;1.10;0.70;;;12.10;99.90;;;;;;5042864;28;20471;-81
2020/12/22 11:33:46;;;;;;;1.07;0.97;;;12.00;99.90;;;;;;5033037;28;20434;-81
2020/12/22 11:36:14;;;;;;;0.73;0.73;;;11.90;99.90;;;;;;5032518;28;20431;-80
2020/12/22 11:38:40;;;;;;;0.80;0.80;;;11.80;99.90;;;;;;5031312;28;20467;-81
2020/12/22 11:41:06;;;;;;;1.23;1.13;;;11.70;99.90;;;;;;5028450;28;20948;-82
2020/12/22 11:43:32;;;;;;;0.80;0.80;;;11.70;99.90;;;;;;5030796;28;20436;-79
2020/12/22 11:45:59;;;;;;;0.70;0.70;;;11.60;99.90;;;;;;5033617;28;20232;-80
2020/12/22 11:48:24;;;;;;;1.60;1.20;;;11.50;99.90;;;;;;5030457;28;20436;-82
2020/12/22 11:50:57;;;;;;;1.20;1.10;;;11.30;99.90;;;;;;5035656;28;20467;-80
2020/12/22 11:53:24;;;;;;;3.13;1.30;;;11.20;99.90;;;;;;5027555;28;20448;-80
2020/12/22 11:55:53;;;;;;;3.50;2.20;;;11.10;99.90;;;;;;5027452;28;20756;-79
2020/12/22 11:58:19;;;;;;;1.57;1.47;;;11.00;99.90;;;;;;5024949;28;20422;-80
2020/12/22 12:00:46;;;;;;;2.27;2.13;;;11.00;99.90;;;;;;5028898;28;20547;-83
2020/12/22 12:03:15;;;;;;;2.97;2.40;;;10.80;99.90;;;;;;5031003;28;20520;-84
2020/12/22 12:05:41;;;;;;;2.80;1.93;;;10.80;99.90;;;;;;5026731;28;20648;-82
2020/12/22 12:08:07;;;;;;;3.07;2.50;;;10.80;99.90;;;;;;5024938;28;20424;-81
2020/12/22 12:10:33;;;;;;;2.70;2.50;;;10.70;99.90;;;;;;5030755;28;20240;-82
2020/12/22 12:12:58;;;;;;;5.07;3.27;;;10.70;99.90;;;;;;5028902;28;20240;-82
2020/12/22 12:15:24;;;;;;;2.67;2.47;;;10.60;99.90;;;;;;5020118;28;20184;-82
2020/12/22 12:18:25;;;;;;;3.83;3.37;;;10.60;99.90;;;;;;5018325;28;20182;-81
2020/12/22 12:20:51;;;;;;;3.67;3.27;;;10.50;99.90;;;;;;5015251;28;20436;-83
2020/12/22 12:23:17;;;;;;;3.10;2.63;;;10.50;99.90;;;;;;5018822;28;20509;-81
2020/12/22 12:25:42;;;;;;;2.87;2.20;;;10.40;99.90;;;;;;5022604;28;20186;-83
2020/12/22 12:28:08;;;;;;;3.37;2.90;;;10.30;99.90;;;;;;5027688;28;20170;-82
2020/12/22 12:30:34;;;;;;;2.30;2.20;;;10.30;99.90;;;;;;5032200;28;20197;-81
2020/12/22 12:33:00;;;;;;;4.47;2.53;;;10.30;99.90;;;;;;5028973;28;20268;-82
2020/12/22 12:35:26;;;;;;;2.83;2.00;;;10.30;99.90;;;;;;5027641;28;20181;-81
2020/12/22 12:37:53;;;;;;;4.10;1.90;;;10.20;99.90;;;;;;5026442;28;20439;-82
2020/12/22 12:40:18;;;;;;;3.63;1.93;;;10.20;99.90;;;;;;5029188;28;20521;-82
2020/12/22 12:42:44;;;;;;;2.67;2.47;;;10.10;99.90;;;;;;5031985;28;20565;-82
2020/12/22 12:45:13;;;;;;;3.80;2.67;;;10.10;99.90;;;;;;5031331;28;20209;-83
2020/12/22 12:47:40;;;;;;;4.60;2.20;;;10.00;99.90;;;;;;5030576;28;20210;-83
2020/12/22 12:50:06;;;;;;;2.20;2.00;;;10.00;99.90;;;;;;5036872;28;20971;-83
2020/12/22 12:52:32;;;;;;;3.27;1.73;;;10.00;99.90;;;;;;5030351;28;20428;-84
2020/12/22 12:54:58;;;;;;;2.60;1.60;;;10.00;99.90;;;;;;5024250;28;20820;-84